sensor_id;sensor_type;location;lat;lon;timestamp;pressure;altitude;pressure_sealevel;temperature;humidity
67697;BME280;54486;51.442;6.778;2023-02-12T00:01:13;103642.19;;;8.22;100.00
67697;BME280;54486;51.442;6.778;2023-02-12T00:03:41;103647.41;;;8.22;100.00
67697;BME280;54486;51.442;6.778;2023-02-12T00:06:08;103635.19;;;8.21;100.00
67697;BME280;54486;51.442;6.778;2023-02-12T00:08:36;103645.59;;;8.21;100.00
67697;BME280;54486;51.442;6.778;2023-02-12T00:11:11;103647.25;;;8.19;100.00
67697;BME280;54486;51.442;6.778;2023-02-12T00:13:38;103652.44;;;8.19;100.00
67697;BME280;54486;51.442;6.778;2023-02-12T00:16:06;103645.44;;;8.18;100.00
67697;BME280;54486;51.442;6.778;2023-02-12T00:18:33;103641.91;;;8.16;100.00
67697;BME280;54486;51.442;6.778;2023-02-12T00:21:01;103638.31;;;8.14;100.00
67697;BME280;54486;51.442;6.778;2023-02-12T00:23:28;103646.94;;;8.13;100.00
67697;BME280;54486;51.442;6.778;2023-02-12T00:25:55;103643.38;;;8.11;100.00
67697;BME280;54486;51.442;6.778;2023-02-12T00:28:22;103646.94;;;8.13;100.00
67697;BME280;54486;51.442;6.778;2023-02-12T00:30:50;103643.50;;;8.14;99.97
67697;BME280;54486;51.442;6.778;2023-02-12T00:33:17;103646.94;;;8.13;100.00
67697;BME280;54486;51.442;6.778;2023-02-12T00:35:43;103652.16;;;8.13;100.00
67697;BME280;54486;51.442;6.778;2023-02-12T00:38:10;103647.75;;;8.12;99.90
67697;BME280;54486;51.442;6.778;2023-02-12T00:40:37;103646.81;;;8.10;100.00
67697;BME280;54486;51.442;6.778;2023-02-12T00:43:04;103642.56;;;8.12;100.00
67697;BME280;54486;51.442;6.778;2023-02-12T00:45:31;103651.16;;;8.11;100.00
67697;BME280;54486;51.442;6.778;2023-02-12T00:47:58;103644.25;;;8.11;100.00
67697;BME280;54486;51.442;6.778;2023-02-12T00:50:25;103645.16;;;8.12;100.00
67697;BME280;54486;51.442;6.778;2023-02-12T00:52:52;103643.38;;;8.11;99.78
67697;BME280;54486;51.442;6.778;2023-02-12T00:55:19;103636.25;;;8.07;100.00
67697;BME280;54486;51.442;6.778;2023-02-12T00:57:46;103642.34;;;8.07;100.00
67697;BME280;54486;51.442;6.778;2023-02-12T01:00:13;103645.00;;;8.09;100.00
67697;BME280;54486;51.442;6.778;2023-02-12T01:02:40;103639.00;;;8.10;100.00
67697;BME280;54486;51.442;6.778;2023-02-12T01:05:07;103639.81;;;8.09;100.00
67697;BME280;54486;51.442;6.778;2023-02-12T01:07:35;103641.47;;;8.07;100.00
67697;BME280;54486;51.442;6.778;2023-02-12T01:10:04;103642.41;;;8.09;100.00
67697;BME280;54486;51.442;6.778;2023-02-12T01:12:33;103637.88;;;8.05;100.00
67697;BME280;54486;51.442;6.778;2023-02-12T01:15:01;103634.56;;;8.07;100.00
67697;BME280;54486;51.442;6.778;2023-02-12T01:17:29;103633.56;;;8.05;100.00
67697;BME280;54486;51.442;6.778;2023-02-12T01:19:56;103629.13;;;8.03;100.00
67697;BME280;54486;51.442;6.778;2023-02-12T01:22:24;103634.31;;;8.03;100.00
67697;BME280;54486;51.442;6.778;2023-02-12T01:24:50;103639.50;;;8.03;100.00
67697;BME280;54486;51.442;6.778;2023-02-12T01:27:17;103632.53;;;8.02;100.00
67697;BME280;54486;51.442;6.778;2023-02-12T01:29:44;103634.31;;;8.03;100.00
67697;BME280;54486;51.442;6.778;2023-02-12T01:32:11;103629.13;;;8.03;100.00
67697;BME280;54486;51.442;6.778;2023-02-12T01:34:37;103632.66;;;8.05;100.00
67697;BME280;54486;51.442;6.778;2023-02-12T01:37:04;103625.84;;;8.07;100.00
67697;BME280;54486;51.442;6.778;2023-02-12T01:39:31;103625.84;;;8.07;100.00
67697;BME280;54486;51.442;6.778;2023-02-12T01:41:58;103627.63;;;8.08;100.00
67697;BME280;54486;51.442;6.778;2023-02-12T01:44:27;103624.22;;;8.09;100.00
67697;BME280;54486;51.442;6.778;2023-02-12T01:47:01;103629.41;;;8.09;100.00
67697;BME280;54486;51.442;6.778;2023-02-12T01:49:30;103628.50;;;8.08;100.00
67697;BME280;54486;51.442;6.778;2023-02-12T01:51:58;103624.06;;;8.06;100.00
67697;BME280;54486;51.442;6.778;2023-02-12T01:54:26;103623.25;;;8.07;100.00
67697;BME280;54486;51.442;6.778;2023-02-12T01:56:54;103621.22;;;8.01;100.00
67697;BME280;54486;51.442;6.778;2023-02-12T01:59:22;103620.34;;;8.01;100.00
67697;BME280;54486;51.442;6.778;2023-02-12T02:01:49;103616.03;;;8.01;100.00
67697;BME280;54486;51.442;6.778;2023-02-12T02:04:18;103620.94;;;7.95;100.00
67697;BME280;54486;51.442;6.778;2023-02-12T02:06:50;103614.84;;;7.94;100.00
67697;BME280;54486;51.442;6.778;2023-02-12T02:09:20;103616.63;;;7.95;100.00
67697;BME280;54486;51.442;6.778;2023-02-12T02:11:47;103613.22;;;7.96;100.00
67697;BME280;54486;51.442;6.778;2023-02-12T02:14:33;103621.97;;;7.98;100.00
67697;BME280;54486;51.442;6.778;2023-02-12T02:33:21;103601.16;;;7.98;100.00
67697;BME280;54486;51.442;6.778;2023-02-12T02:35:58;103597.75;;;7.99;100.00
67697;BME280;54486;51.442;6.778;2023-02-12T02:38:30;103594.34;;;8.01;100.00
67697;BME280;54486;51.442;6.778;2023-02-12T02:41:06;103592.56;;;7.99;100.00
67697;BME280;54486;51.442;6.778;2023-02-12T02:43:37;103600.28;;;7.98;100.00
67697;BME280;54486;51.442;6.778;2023-02-12T02:46:14;103600.28;;;7.98;100.00
67697;BME280;54486;51.442;6.778;2023-02-12T02:48:48;103598.38;;;7.94;100.00
67697;BME280;54486;51.442;6.778;2023-02-12T02:51:20;103589.66;;;7.93;100.00
67697;BME280;54486;51.442;6.778;2023-02-12T02:53:53;103590.47;;;7.92;100.00
67697;BME280;54486;51.442;6.778;2023-02-12T02:56:23;103592.28;;;7.93;100.00
67697;BME280;54486;51.442;6.778;2023-02-12T02:58:58;103591.38;;;7.93;100.00
67697;BME280;54486;51.442;6.778;2023-02-12T03:04:03;103590.47;;;7.92;100.00
67697;BME280;54486;51.442;6.778;2023-02-12T03:06:33;103599.09;;;7.91;100.00
67697;BME280;54486;51.442;6.778;2023-02-12T03:09:03;103608.47;;;7.88;100.00
67697;BME280;54486;51.442;6.778;2023-02-12T03:11:32;103599.78;;;7.87;100.00
67697;BME280;54486;51.442;6.778;2023-02-12T03:14:02;103605.63;;;7.83;100.00
67697;BME280;54486;51.442;6.778;2023-02-12T03:16:32;103591.81;;;7.84;100.00
67697;BME280;54486;51.442;6.778;2023-02-12T03:21:30;103598.94;;;7.88;100.00
67697;BME280;54486;51.442;6.778;2023-02-12T03:24:04;103603.41;;;7.91;100.00
67697;BME280;54486;51.442;6.778;2023-02-12T03:26:42;103593.88;;;7.91;100.00
67697;BME280;54486;51.442;6.778;2023-02-12T03:29:10;103599.97;;;7.92;100.00
67697;BME280;54486;51.442;6.778;2023-02-12T03:31:55;103601.63;;;7.90;100.00
67697;BME280;54486;51.442;6.778;2023-02-12T03:34:33;103607.72;;;7.90;100.00
67697;BME280;54486;51.442;6.778;2023-02-12T03:39:55;103605.94;;;7.89;100.00
67697;BME280;54486;51.442;6.778;2023-02-12T03:42:30;103604.84;;;7.84;100.00
67697;BME280;54486;51.442;6.778;2023-02-12T03:45:07;103601.25;;;7.82;100.00
67697;BME280;54486;51.442;6.778;2023-02-12T03:47:43;103607.44;;;7.84;100.00
67697;BME280;54486;51.442;6.778;2023-02-12T03:50:19;103608.88;;;7.79;100.00
67697;BME280;54486;51.442;6.778;2023-02-12T03:52:48;103610.69;;;7.80;100.00
67697;BME280;54486;51.442;6.778;2023-02-12T03:55:16;103605.34;;;7.77;100.00
67697;BME280;54486;51.442;6.778;2023-02-12T03:57:47;103603.53;;;7.76;100.00
67697;BME280;54486;51.442;6.778;2023-02-12T04:00:20;103609.72;;;7.78;100.00
67697;BME280;54486;51.442;6.778;2023-02-12T04:02:48;103611.19;;;7.73;100.00
67697;BME280;54486;51.442;6.778;2023-02-12T04:05:19;103606.78;;;7.72;100.00
67697;BME280;54486;51.442;6.778;2023-02-12T04:07:47;103611.84;;;7.69;100.00
67697;BME280;54486;51.442;6.778;2023-02-12T04:10:15;103613.34;;;7.64;100.00
67697;BME280;54486;51.442;6.778;2023-02-12T04:17:43;103615.28;;;7.68;100.00
67697;BME280;54486;51.442;6.778;2023-02-12T04:20:24;103621.28;;;7.67;100.00
67697;BME280;54486;51.442;6.778;2023-02-12T04:30:54;103631.19;;;7.74;100.00
67697;BME280;54486;51.442;6.778;2023-02-12T04:33:23;103638.00;;;7.72;100.00
67697;BME280;54486;51.442;6.778;2023-02-12T04:35:59;103636.38;;;7.74;100.00
67697;BME280;54486;51.442;6.778;2023-02-12T04:38:28;103635.38;;;7.72;100.00
67697;BME280;54486;51.442;6.778;2023-02-12T04:40:58;103639.78;;;7.73;100.00
67697;BME280;54486;51.442;6.778;2023-02-12T04:43:35;103641.47;;;7.73;100.00
67697;BME280;54486;51.442;6.778;2023-02-12T04:46:02;103641.56;;;7.74;100.00
67697;BME280;54486;51.442;6.778;2023-02-12T04:48:30;103655.38;;;7.73;100.00
67697;BME280;54486;51.442;6.778;2023-02-12T04:50:57;103648.38;;;7.72;100.00
67697;BME280;54486;51.442;6.778;2023-02-12T04:53:24;103664.16;;;7.75;100.00
67697;BME280;54486;51.442;6.778;2023-02-12T04:55:51;103654.56;;;7.74;100.00
67697;BME280;54486;51.442;6.778;2023-02-12T04:58:18;103657.16;;;7.74;100.00
67697;BME280;54486;51.442;6.778;2023-02-12T05:00:45;103651.16;;;7.75;100.00
67697;BME280;54486;51.442;6.778;2023-02-12T05:03:12;103651.97;;;7.74;100.00
67697;BME280;54486;51.442;6.778;2023-02-12T05:05:39;103655.53;;;7.76;100.00
67697;BME280;54486;51.442;6.778;2023-02-12T05:08:06;103654.56;;;7.74;100.00
67697;BME280;54486;51.442;6.778;2023-02-12T05:10:33;103647.59;;;7.73;100.00
67697;BME280;54486;51.442;6.778;2023-02-12T05:13:01;103651.97;;;7.74;100.00
67697;BME280;54486;51.442;6.778;2023-02-12T05:15:28;103648.38;;;7.72;100.00
67697;BME280;54486;51.442;6.778;2023-02-12T05:17:54;103648.38;;;7.72;100.00
67697;BME280;54486;51.442;6.778;2023-02-12T05:20:21;103653.59;;;7.72;100.00
67697;BME280;54486;51.442;6.778;2023-02-12T05:22:52;103658.78;;;7.72;100.00
67697;BME280;54486;51.442;6.778;2023-02-12T05:25:19;103654.41;;;7.71;100.00
67697;BME280;54486;51.442;6.778;2023-02-12T05:27:46;103661.31;;;7.71;100.00
67697;BME280;54486;51.442;6.778;2023-02-12T05:30:13;103661.38;;;7.72;100.00
67697;BME280;54486;51.442;6.778;2023-02-12T05:32:40;103665.63;;;7.70;100.00
67697;BME280;54486;51.442;6.778;2023-02-12T05:35:06;103669.03;;;7.69;100.00
67697;BME280;54486;51.442;6.778;2023-02-12T05:37:34;103670.66;;;7.67;100.00
67697;BME280;54486;51.442;6.778;2023-02-12T05:40:05;103665.47;;;7.67;100.00
67697;BME280;54486;51.442;6.778;2023-02-12T05:42:32;103674.22;;;7.69;100.00
67697;BME280;54486;51.442;6.778;2023-02-12T05:44:59;103675.88;;;7.67;100.00
67697;BME280;54486;51.442;6.778;2023-02-12T05:47:26;103671.41;;;7.65;100.00
67697;BME280;54486;51.442;6.778;2023-02-12T05:49:53;103685.47;;;7.68;100.00
67697;BME280;54486;51.442;6.778;2023-02-12T05:52:21;103677.66;;;7.68;100.00
67697;BME280;54486;51.442;6.778;2023-02-12T05:54:48;103681.97;;;7.68;100.00
67697;BME280;54486;51.442;6.778;2023-02-12T05:57:15;103675.88;;;7.67;100.00
67697;BME280;54486;51.442;6.778;2023-02-12T05:59:42;103671.63;;;7.69;100.00
67697;BME280;54486;51.442;6.778;2023-02-12T06:02:09;103668.06;;;7.67;100.00
67697;BME280;54486;51.442;6.778;2023-02-12T06:04:35;103674.06;;;7.66;100.00
67697;BME280;54486;51.442;6.778;2023-02-12T06:07:02;103680.31;;;7.70;100.00
67697;BME280;54486;51.442;6.778;2023-02-12T06:09:29;103676.03;;;7.70;100.00
67697;BME280;54486;51.442;6.778;2023-02-12T06:11:55;103679.41;;;7.69;100.00
67697;BME280;54486;51.442;6.778;2023-02-12T06:14:22;103680.25;;;7.68;100.00
67697;BME280;54486;51.442;6.778;2023-02-12T06:16:50;103670.66;;;7.67;100.00
67697;BME280;54486;51.442;6.778;2023-02-12T06:19:17;103666.38;;;7.68;100.00
67697;BME280;54486;51.442;6.778;2023-02-12T06:21:45;103670.66;;;7.67;100.00
67697;BME280;54486;51.442;6.778;2023-02-12T06:24:12;103674.97;;;7.67;100.00
67697;BME280;54486;51.442;6.778;2023-02-12T06:26:40;103672.47;;;7.68;100.00
67697;BME280;54486;51.442;6.778;2023-02-12T06:29:07;103672.31;;;7.65;100.00
67697;BME280;54486;51.442;6.778;2023-02-12T06:31:34;103675.56;;;7.61;100.00
67697;BME280;54486;51.442;6.778;2023-02-12T06:34:03;103683.41;;;7.63;100.00
67697;BME280;54486;51.442;6.778;2023-02-12T06:36:31;103682.56;;;7.62;100.00
67697;BME280;54486;51.442;6.778;2023-02-12T06:38:59;103683.34;;;7.61;100.00
67697;BME280;54486;51.442;6.778;2023-02-12T06:41:26;103677.34;;;7.62;100.00
67697;BME280;54486;51.442;6.778;2023-02-12T06:43:53;103680.75;;;7.61;100.00
67697;BME280;54486;51.442;6.778;2023-02-12T06:46:21;103687.75;;;7.62;100.00
67697;BME280;54486;51.442;6.778;2023-02-12T06:48:51;103684.25;;;7.62;100.00
67697;BME280;54486;51.442;6.778;2023-02-12T06:51:18;103692.03;;;7.62;100.00
67697;BME280;54486;51.442;6.778;2023-02-12T06:53:47;103684.16;;;7.60;100.00
67697;BME280;54486;51.442;6.778;2023-02-12T06:56:14;103685.94;;;7.61;100.00
67697;BME280;54486;51.442;6.778;2023-02-12T06:58:42;103694.56;;;7.60;100.00
67697;BME280;54486;51.442;6.778;2023-02-12T07:01:11;103687.75;;;7.62;100.00
67697;BME280;54486;51.442;6.778;2023-02-12T07:03:40;103694.56;;;7.60;100.00
67697;BME280;54486;51.442;6.778;2023-02-12T07:06:07;103705.09;;;7.63;100.00
67697;BME280;54486;51.442;6.778;2023-02-12T07:08:34;103699.91;;;7.63;100.00
67697;BME280;54486;51.442;6.778;2023-02-12T07:11:02;103701.69;;;7.64;100.00
67697;BME280;54486;51.442;6.778;2023-02-12T07:13:28;103698.31;;;7.65;100.00
67697;BME280;54486;51.442;6.778;2023-02-12T07:15:56;103702.81;;;7.69;100.00
67697;BME280;54486;51.442;6.778;2023-02-12T07:18:23;103708.00;;;7.69;100.00
67697;BME280;54486;51.442;6.778;2023-02-12T07:20:50;103711.59;;;7.71;100.00
67697;BME280;54486;51.442;6.778;2023-02-12T07:23:17;103712.41;;;7.70;100.00
67697;BME280;54486;51.442;6.778;2023-02-12T07:25:52;103709.81;;;7.70;100.00
67697;BME280;54486;51.442;6.778;2023-02-12T07:28:22;103708.84;;;7.68;100.00
67697;BME280;54486;51.442;6.778;2023-02-12T07:30:49;103711.34;;;7.67;100.00
67697;BME280;54486;51.442;6.778;2023-02-12T07:33:16;103712.25;;;7.67;100.00
67697;BME280;54486;51.442;6.778;2023-02-12T07:35:43;103711.50;;;7.70;100.00
67697;BME280;54486;51.442;6.778;2023-02-12T07:38:12;103720.00;;;7.66;100.00
67697;BME280;54486;51.442;6.778;2023-02-12T07:40:39;103712.25;;;7.67;100.00
67697;BME280;54486;51.442;6.778;2023-02-12T07:43:05;103717.59;;;7.70;100.00
67697;BME280;54486;51.442;6.778;2023-02-12T07:45:32;103722.22;;;7.76;100.00
67697;BME280;54486;51.442;6.778;2023-02-12T07:47:59;103720.75;;;7.81;100.00
67697;BME280;54486;51.442;6.778;2023-02-12T07:50:26;103721.81;;;7.84;100.00
67697;BME280;54486;51.442;6.778;2023-02-12T07:52:53;103713.34;;;7.88;100.00
67697;BME280;54486;51.442;6.778;2023-02-12T07:55:20;103720.19;;;7.86;100.00
67697;BME280;54486;51.442;6.778;2023-02-12T07:57:47;103717.41;;;7.83;100.00
67697;BME280;54486;51.442;6.778;2023-02-12T08:00:14;103723.66;;;7.87;100.00
67697;BME280;54486;51.442;6.778;2023-02-12T08:02:41;103729.97;;;7.92;100.00
67697;BME280;54486;51.442;6.778;2023-02-12T08:05:08;103727.78;;;7.99;100.00
67697;BME280;54486;51.442;6.778;2023-02-12T08:07:35;103736.69;;;8.05;100.00
67697;BME280;54486;51.442;6.778;2023-02-12T08:10:02;103731.66;;;8.08;99.94
67697;BME280;54486;51.442;6.778;2023-02-12T08:12:29;103738.78;;;8.12;99.71
67697;BME280;54486;51.442;6.778;2023-02-12T08:14:56;103732.13;;;8.17;99.94
67697;BME280;54486;51.442;6.778;2023-02-12T08:17:22;103730.63;;;8.22;100.00
67697;BME280;54486;51.442;6.778;2023-02-12T08:19:49;103737.78;;;8.26;99.35
67697;BME280;54486;51.442;6.778;2023-02-12T08:22:16;103737.78;;;8.26;99.71
67697;BME280;54486;51.442;6.778;2023-02-12T08:24:44;103743.00;;;8.26;99.61
67697;BME280;54486;51.442;6.778;2023-02-12T08:27:13;103739.41;;;8.24;99.35
67697;BME280;54486;51.442;6.778;2023-02-12T08:29:40;103744.75;;;8.27;98.88
67697;BME280;54486;51.442;6.778;2023-02-12T08:32:07;103748.19;;;8.26;98.51
67697;BME280;54486;51.442;6.778;2023-02-12T08:34:39;103758.94;;;8.32;99.08
67697;BME280;54486;51.442;6.778;2023-02-12T08:37:07;103750.47;;;8.36;98.74
67697;BME280;54486;51.442;6.778;2023-02-12T08:39:34;103755.97;;;8.42;99.11
67697;BME280;54486;51.442;6.778;2023-02-12T08:42:01;103758.63;;;8.43;98.58
67697;BME280;54486;51.442;6.778;2023-02-12T08:44:28;103759.53;;;8.44;98.42
67697;BME280;54486;51.442;6.778;2023-02-12T08:46:55;103749.78;;;8.40;98.25
67697;BME280;54486;51.442;6.778;2023-02-12T08:49:23;103755.44;;;8.49;98.31
67697;BME280;54486;51.442;6.778;2023-02-12T08:51:51;103750.16;;;8.47;97.95
67697;BME280;54486;51.442;6.778;2023-02-12T08:54:20;103753.81;;;8.51;97.94
67697;BME280;54486;51.442;6.778;2023-02-12T08:56:47;103756.56;;;8.54;97.39
67697;BME280;54486;51.442;6.778;2023-02-12T08:59:15;103760.56;;;8.65;97.75
67697;BME280;54486;51.442;6.778;2023-02-12T09:01:42;103755.06;;;8.77;97.32
67697;BME280;54486;51.442;6.778;2023-02-12T09:04:14;103761.16;;;8.77;96.64
67697;BME280;54486;51.442;6.778;2023-02-12T09:06:43;103759.38;;;8.76;96.34
67697;BME280;54486;51.442;6.778;2023-02-12T09:09:12;103765.63;;;8.80;95.40
67697;BME280;54486;51.442;6.778;2023-02-12T09:11:39;103764.06;;;8.83;95.51
67697;BME280;54486;51.442;6.778;2023-02-12T09:14:07;103762.03;;;8.95;95.31
67697;BME280;54486;51.442;6.778;2023-02-12T09:16:35;103762.84;;;8.94;94.97
67697;BME280;54486;51.442;6.778;2023-02-12T09:19:03;103766.47;;;8.98;94.16
67697;BME280;54486;51.442;6.778;2023-02-12T09:21:30;103767.81;;;9.08;94.06
67697;BME280;54486;51.442;6.778;2023-02-12T09:23:57;103764.72;;;9.16;94.02
67697;BME280;54486;51.442;6.778;2023-02-12T09:26:25;103769.88;;;9.15;93.41
67697;BME280;54486;51.442;6.778;2023-02-12T09:28:52;103771.81;;;9.19;92.47
67697;BME280;54486;51.442;6.778;2023-02-12T09:31:21;103774.19;;;9.14;91.66
67697;BME280;54486;51.442;6.778;2023-02-12T09:34:02;103771.81;;;9.19;91.77
67697;BME280;54486;51.442;6.778;2023-02-12T09:36:31;103772.09;;;9.25;91.10
67697;BME280;54486;51.442;6.778;2023-02-12T09:38:59;103767.72;;;9.43;91.14
67697;BME280;54486;51.442;6.778;2023-02-12T09:44:09;103766.19;;;9.67;90.32
67697;BME280;54486;51.442;6.778;2023-02-12T09:49:35;103774.69;;;9.82;89.31
67697;BME280;54486;51.442;6.778;2023-02-12T09:52:12;103768.78;;;9.67;86.36
67697;BME280;54486;51.442;6.778;2023-02-12T09:54:41;103770.94;;;9.56;86.50
67697;BME280;54486;51.442;6.778;2023-02-12T09:59:58;103771.25;;;9.45;86.53
67697;BME280;54486;51.442;6.778;2023-02-12T10:02:28;103772.66;;;9.37;86.86
67697;BME280;54486;51.442;6.778;2023-02-12T10:04:55;103778.03;;;9.41;87.17
67697;BME280;54486;51.442;6.778;2023-02-12T10:12:50;103781.34;;;9.95;87.06
67697;BME280;54486;51.442;6.778;2023-02-12T10:15:37;103779.88;;;10.01;85.95
67697;BME280;54486;51.442;6.778;2023-02-12T10:18:14;103782.75;;;10.07;84.39
67697;BME280;54486;51.442;6.778;2023-02-12T10:20:51;103783.94;;;10.14;84.46
67697;BME280;54486;51.442;6.778;2023-02-12T10:23:28;103777.31;;;10.22;84.03
67697;BME280;54486;51.442;6.778;2023-02-12T10:26:07;103780.97;;;10.06;82.19
67697;BME280;54486;51.442;6.778;2023-02-12T10:28:39;103777.19;;;10.19;82.60
67697;BME280;54486;51.442;6.778;2023-02-12T10:33:55;103784.31;;;10.44;82.80
67697;BME280;54486;51.442;6.778;2023-02-12T10:38:54;103770.03;;;10.56;81.44
67697;BME280;54486;51.442;6.778;2023-02-12T10:41:24;103781.50;;;10.60;80.92
67697;BME280;54486;51.442;6.778;2023-02-12T10:43:53;103780.13;;;10.27;77.76
67697;BME280;54486;51.442;6.778;2023-02-12T10:46:20;103779.34;;;10.29;77.54
67697;BME280;54486;51.442;6.778;2023-02-12T10:48:48;103781.28;;;10.33;77.92
67697;BME280;54486;51.442;6.778;2023-02-12T10:53:49;103777.97;;;10.17;78.37
67697;BME280;54486;51.442;6.778;2023-02-12T10:56:18;103773.00;;;10.23;79.08
67697;BME280;54486;51.442;6.778;2023-02-12T11:01:19;103757.19;;;10.61;80.53
67697;BME280;54486;51.442;6.778;2023-02-12T11:03:47;103754.09;;;10.71;80.55
67697;BME280;54486;51.442;6.778;2023-02-12T11:06:15;103766.03;;;10.87;79.90
67697;BME280;54486;51.442;6.778;2023-02-12T11:08:43;103756.72;;;10.93;79.74
67697;BME280;54486;51.442;6.778;2023-02-12T11:11:24;103751.16;;;10.84;78.86
67697;BME280;54486;51.442;6.778;2023-02-12T11:13:59;103757.91;;;10.79;78.06
67697;BME280;54486;51.442;6.778;2023-02-12T11:16:29;103758.38;;;10.91;78.75
67697;BME280;54486;51.442;6.778;2023-02-12T11:19:07;103758.13;;;10.85;77.80
67697;BME280;54486;51.442;6.778;2023-02-12T11:21:34;103755.28;;;11.01;78.50
67697;BME280;54486;51.442;6.778;2023-02-12T11:26:48;103749.59;;;11.11;77.80
67697;BME280;54486;51.442;6.778;2023-02-12T11:29:17;103744.66;;;11.19;77.00
67697;BME280;54486;51.442;6.778;2023-02-12T11:32:19;103748.88;;;11.15;75.50
67697;BME280;54486;51.442;6.778;2023-02-12T11:34:38;103749.69;;;11.14;74.81
67697;BME280;54486;51.442;6.778;2023-02-12T11:37:06;103740.66;;;11.29;75.32
67697;BME280;54486;51.442;6.778;2023-02-12T11:39:40;103742.09;;;11.21;74.61
67697;BME280;54486;51.442;6.778;2023-02-12T11:42:19;103740.66;;;11.29;75.14
67697;BME280;54486;51.442;6.778;2023-02-12T11:44:49;103737.31;;;11.33;74.32
67697;BME280;54486;51.442;6.778;2023-02-12T11:47:17;103738.16;;;11.32;74.18
67697;BME280;54486;51.442;6.778;2023-02-12T11:49:50;103733.16;;;11.38;74.56
67697;BME280;54486;51.442;6.778;2023-02-12T11:52:22;103738.41;;;11.15;73.63
67697;BME280;54486;51.442;6.778;2023-02-12T11:54:51;103732.59;;;11.23;74.53
67697;BME280;54486;51.442;6.778;2023-02-12T12:00:45;103732.06;;;11.33;75.16
67697;BME280;54486;51.442;6.778;2023-02-12T12:05:25;103728.75;;;11.37;74.99
67697;BME280;54486;51.442;6.778;2023-02-12T12:07:57;103726.63;;;11.27;74.18
67697;BME280;54486;51.442;6.778;2023-02-12T12:10:37;103726.19;;;11.38;74.97
67697;BME280;54486;51.442;6.778;2023-02-12T12:13:13;103716.75;;;11.42;74.38
67697;BME280;54486;51.442;6.778;2023-02-12T12:15:43;103707.94;;;11.40;74.55
67697;BME280;54486;51.442;6.778;2023-02-12T12:21:33;103707.50;;;11.28;74.21
67697;BME280;54486;51.442;6.778;2023-02-12T12:24:04;103707.81;;;11.37;74.57
67697;BME280;54486;51.442;6.778;2023-02-12T12:26:35;103704.38;;;11.38;74.61
67697;BME280;54486;51.442;6.778;2023-02-12T12:29:23;103701.59;;;11.09;73.83
67697;BME280;54486;51.442;6.778;2023-02-12T12:31:54;103703.03;;;11.01;73.65
67697;BME280;54486;51.442;6.778;2023-02-12T12:34:24;103701.38;;;11.03;74.45
67697;BME280;54486;51.442;6.778;2023-02-12T12:49:50;103669.56;;;11.39;73.80
67697;BME280;54486;51.442;6.778;2023-02-12T12:52:38;103670.31;;;11.36;73.85
67697;BME280;54486;51.442;6.778;2023-02-12T12:55:17;103674.81;;;11.39;73.55
67697;BME280;54486;51.442;6.778;2023-02-12T12:57:53;103665.38;;;11.44;73.92
67697;BME280;54486;51.442;6.778;2023-02-12T13:03:09;103668.09;;;11.47;73.88
67697;BME280;54486;51.442;6.778;2023-02-12T13:05:58;103658.56;;;11.49;73.96
67697;BME280;54486;51.442;6.778;2023-02-12T13:11:01;103648.88;;;11.45;73.87
67697;BME280;54486;51.442;6.778;2023-02-12T13:13:34;103650.59;;;11.44;73.74
67697;BME280;54486;51.442;6.778;2023-02-12T13:23:46;103635.81;;;11.46;74.33
67697;BME280;54486;51.442;6.778;2023-02-12T13:26:24;103636.81;;;11.50;73.70
67697;BME280;54486;51.442;6.778;2023-02-12T13:29:40;103638.53;;;11.49;74.01
67697;BME280;54486;51.442;6.778;2023-02-12T13:34:38;103624.38;;;11.43;73.88
67697;BME280;54486;51.442;6.778;2023-02-12T13:37:05;103633.19;;;11.45;74.16
67697;BME280;54486;51.442;6.778;2023-02-12T13:39:38;103627.75;;;11.39;74.57
67697;BME280;54486;51.442;6.778;2023-02-12T13:42:09;103622.41;;;11.36;74.41
67697;BME280;54486;51.442;6.778;2023-02-12T13:45:23;103622.41;;;11.36;74.44
67697;BME280;54486;51.442;6.778;2023-02-12T13:47:34;103630.25;;;11.36;74.63
67697;BME280;54486;51.442;6.778;2023-02-12T13:53:00;103630.06;;;11.31;74.50
67697;BME280;54486;51.442;6.778;2023-02-12T13:55:36;103627.50;;;11.33;74.58
67697;BME280;54486;51.442;6.778;2023-02-12T14:03:22;103618.72;;;11.31;75.19
67697;BME280;54486;51.442;6.778;2023-02-12T14:06:05;103625.31;;;11.20;75.21
67697;BME280;54486;51.442;6.778;2023-02-12T14:08:34;103623.53;;;11.19;75.09
67697;BME280;54486;51.442;6.778;2023-02-12T14:11:06;103630.53;;;11.20;74.97
67697;BME280;54486;51.442;6.778;2023-02-12T14:13:35;103625.34;;;11.21;74.68
67697;BME280;54486;51.442;6.778;2023-02-12T14:21:42;103628.44;;;11.09;74.86
67697;BME280;54486;51.442;6.778;2023-02-12T14:26:56;103633.66;;;11.09;75.52
67697;BME280;54486;51.442;6.778;2023-02-12T14:29:23;103637.09;;;11.08;75.44
67697;BME280;54486;51.442;6.778;2023-02-12T14:31:51;103629.84;;;11.01;75.74
67697;BME280;54486;51.442;6.778;2023-02-12T14:37:08;103629.84;;;11.01;75.68
67697;BME280;54486;51.442;6.778;2023-02-12T14:39:34;103632.47;;;11.01;75.42
67697;BME280;54486;51.442;6.778;2023-02-12T14:45:04;103626.31;;;10.99;75.78
67697;BME280;54486;51.442;6.778;2023-02-12T14:49:59;103624.28;;;10.92;75.63
67697;BME280;54486;51.442;6.778;2023-02-12T14:52:28;103624.41;;;10.95;75.75
67697;BME280;54486;51.442;6.778;2023-02-12T14:54:58;103627.72;;;10.91;75.92
67697;BME280;54486;51.442;6.778;2023-02-12T14:57:26;103621.66;;;10.91;75.83
67697;BME280;54486;51.442;6.778;2023-02-12T14:59:56;103625.13;;;10.91;76.15
67697;BME280;54486;51.442;6.778;2023-02-12T15:02:33;103630.09;;;10.84;75.46
67697;BME280;54486;51.442;6.778;2023-02-12T15:05:04;103625.75;;;10.84;75.84
67697;BME280;54486;51.442;6.778;2023-02-12T15:07:39;103614.41;;;10.84;76.15
67697;BME280;54486;51.442;6.778;2023-02-12T15:10:14;103619.41;;;10.78;76.67
67697;BME280;54486;51.442;6.778;2023-02-12T15:12:47;103621.72;;;10.70;76.71